createdAt,value
2023-04-27T00:00:30.118Z,95098.00
2023-04-27T00:01:30.191Z,95096.00
2023-04-27T00:02:30.698Z,95092.00
2023-04-27T00:03:30.385Z,95090.00
2023-04-27T00:04:30.433Z,95090.00
2023-04-27T00:05:30.469Z,95088.00
2023-04-27T00:06:30.376Z,95088.00
2023-04-27T00:07:30.472Z,95088.00
2023-04-27T00:08:30.510Z,95086.00
2023-04-27T00:09:30.561Z,95086.00
2023-04-27T00:10:30.600Z,95085.00
2023-04-27T00:11:30.650Z,95083.00
2023-04-27T00:12:30.708Z,95083.00
2023-04-27T00:13:30.765Z,95085.00
2023-04-27T00:14:30.802Z,95083.00
2023-04-27T00:15:30.865Z,95085.00
2023-04-27T00:16:31.001Z,95085.00
2023-04-27T00:17:31.071Z,95083.00
2023-04-27T00:18:31.027Z,95083.00
2023-04-27T00:19:31.106Z,95083.00
2023-04-27T00:20:31.150Z,95085.00
2023-04-27T00:21:31.239Z,95085.00
2023-04-27T00:22:31.267Z,95083.00
2023-04-27T00:23:31.369Z,95083.00
2023-04-27T00:24:31.394Z,95080.00
2023-04-27T00:25:31.470Z,95083.00
2023-04-27T00:26:31.547Z,95083.00
2023-04-27T00:27:31.566Z,95080.00
2023-04-27T00:28:31.611Z,95080.00
2023-04-27T00:29:31.661Z,95080.00
2023-04-27T00:30:31.699Z,95077.00
2023-04-27T00:31:31.815Z,95078.00
2023-04-27T00:32:31.877Z,95080.00
2023-04-27T00:33:31.849Z,95077.00
2023-04-27T00:34:31.916Z,95078.00
2023-04-27T00:35:31.953Z,95078.00
2023-04-27T00:36:32.000Z,95078.00
2023-04-27T00:37:32.048Z,95078.00
2023-04-27T00:38:32.090Z,95078.00
2023-04-27T00:39:32.191Z,95075.00
2023-04-27T00:40:32.179Z,95075.00
2023-04-27T00:41:32.237Z,95073.00
2023-04-27T00:42:32.295Z,95071.00
2023-04-27T00:43:32.305Z,95071.00
2023-04-27T00:44:32.368Z,95071.00
2023-04-27T00:45:32.434Z,95071.00
2023-04-27T00:46:32.487Z,95073.00
2023-04-27T00:47:32.562Z,95073.00
2023-04-27T00:48:32.543Z,95075.00
2023-04-27T00:49:32.606Z,95077.00
2023-04-27T00:50:32.632Z,95077.00
2023-04-27T00:51:32.671Z,95075.00
2023-04-27T00:52:32.735Z,95075.00
2023-04-27T00:53:32.786Z,95075.00
2023-04-27T00:54:32.818Z,95073.00
2023-04-27T00:55:32.876Z,95071.00
2023-04-27T00:56:32.905Z,95071.00
2023-04-27T00:57:32.989Z,95071.00
2023-04-27T00:58:33.057Z,95069.00
2023-04-27T00:59:33.102Z,95067.00
2023-04-27T01:00:33.124Z,95069.00
2023-04-27T01:01:33.211Z,95067.00
2023-04-27T01:02:33.434Z,95065.00
2023-04-27T01:03:33.393Z,95067.00
2023-04-27T01:04:33.355Z,95065.00
2023-04-27T01:05:33.371Z,95069.00
2023-04-27T01:06:33.421Z,95071.00
2023-04-27T01:07:33.455Z,95073.00
2023-04-27T01:08:33.506Z,95073.00
2023-04-27T01:09:33.541Z,95071.00
2023-04-27T01:10:33.626Z,95071.00
2023-04-27T01:11:33.647Z,95071.00
2023-04-27T01:12:33.688Z,95071.00
2023-04-27T01:13:33.732Z,95075.00
2023-04-27T01:14:33.809Z,95071.00
2023-04-27T01:15:33.866Z,95071.00
2023-04-27T01:16:33.911Z,95069.00
2023-04-27T01:17:34.002Z,95071.00
2023-04-27T01:18:33.978Z,95071.00
2023-04-27T01:19:34.032Z,95071.00
2023-04-27T01:20:34.308Z,95069.00
2023-04-27T01:21:34.116Z,95069.00
2023-04-27T01:22:34.187Z,95069.00
2023-04-27T01:23:34.256Z,95069.00
2023-04-27T01:24:34.282Z,95069.00
2023-04-27T01:25:34.298Z,95067.00
2023-04-27T01:26:34.352Z,95067.00
2023-04-27T01:27:34.410Z,95067.00
2023-04-27T01:28:34.450Z,95065.00
2023-04-27T01:29:34.504Z,95067.00
2023-04-27T01:30:34.554Z,95065.00
2023-04-27T01:31:34.668Z,95067.00
2023-04-27T01:32:34.617Z,95065.00
2023-04-27T01:33:34.658Z,95067.00
2023-04-27T01:34:34.710Z,95065.00
2023-04-27T01:35:34.783Z,95067.00
2023-04-27T01:36:34.813Z,95067.00
2023-04-27T01:37:34.886Z,95065.00
2023-04-27T01:38:34.906Z,95063.00
2023-04-27T01:39:34.965Z,95063.00
2023-04-27T01:40:34.996Z,95061.00
2023-04-27T01:41:35.034Z,95061.00
2023-04-27T01:42:35.092Z,95065.00
2023-04-27T01:43:35.143Z,95067.00
2023-04-27T01:44:35.182Z,95065.00
2023-04-27T01:45:35.239Z,95067.00
2023-04-27T01:46:35.378Z,95065.00
2023-04-27T01:47:35.307Z,95065.00
2023-04-27T01:48:35.341Z,95063.00
2023-04-27T01:49:35.426Z,95063.00
2023-04-27T01:50:35.436Z,95065.00
2023-04-27T01:51:35.499Z,95063.00
2023-04-27T01:52:35.554Z,95063.00
2023-04-27T01:53:35.594Z,95063.00
2023-04-27T01:54:35.692Z,95067.00
2023-04-27T01:55:35.711Z,95061.00
2023-04-27T01:56:35.734Z,95063.00
2023-04-27T01:57:35.841Z,95063.00
2023-04-27T01:58:35.867Z,95061.00
2023-04-27T01:59:35.906Z,95059.00
2023-04-27T02:00:35.924Z,95059.00
2023-04-27T02:01:36.013Z,95063.00
2023-04-27T02:02:36.163Z,95065.00
2023-04-27T02:03:36.178Z,95067.00
2023-04-27T02:04:36.367Z,95065.00
2023-04-27T02:05:36.216Z,95069.00
2023-04-27T02:06:36.253Z,95067.00
2023-04-27T02:07:36.294Z,95065.00
2023-04-27T02:08:36.484Z,95065.00
2023-04-27T02:09:36.383Z,95063.00
2023-04-27T02:10:36.429Z,95063.00
2023-04-27T02:11:36.453Z,95063.00
2023-04-27T02:12:36.536Z,95061.00
2023-04-27T02:13:36.612Z,95059.00
2023-04-27T02:14:36.642Z,95063.00
2023-04-27T02:15:36.720Z,95069.00
2023-04-27T02:16:36.852Z,95071.00
2023-04-27T02:17:36.884Z,95071.00
2023-04-27T02:18:36.923Z,95071.00
2023-04-27T02:19:37.007Z,95071.00
2023-04-27T02:20:37.037Z,95073.00
2023-04-27T02:21:37.134Z,95069.00
2023-04-27T02:22:37.207Z,95071.00
2023-04-27T02:23:37.253Z,95065.00
2023-04-27T02:24:37.326Z,95065.00
2023-04-27T02:25:37.379Z,95067.00
2023-04-27T02:26:37.430Z,95069.00
2023-04-27T02:27:37.512Z,95077.00
2023-04-27T02:28:37.542Z,95078.00
2023-04-27T02:29:37.615Z,95083.00
2023-04-27T02:30:37.643Z,95083.00
2023-04-27T02:31:37.789Z,95085.00
2023-04-27T02:32:37.808Z,95083.00
2023-04-27T02:33:37.831Z,95080.00
2023-04-27T02:34:37.863Z,95077.00
2023-04-27T02:35:37.933Z,95078.00
2023-04-27T02:36:37.953Z,95080.00
2023-04-27T02:37:38.031Z,95083.00
2023-04-27T02:38:38.069Z,95080.00
2023-04-27T02:39:38.089Z,95085.00
2023-04-27T02:40:38.145Z,95085.00
2023-04-27T02:41:38.182Z,95083.00
2023-04-27T02:42:38.224Z,95080.00
2023-04-27T02:43:38.293Z,95080.00
2023-04-27T02:44:38.317Z,95080.00
2023-04-27T02:45:38.442Z,95078.00
2023-04-27T02:46:38.456Z,95080.00
2023-04-27T02:47:38.484Z,95080.00
2023-04-27T02:48:38.433Z,95078.00
2023-04-27T02:49:38.480Z,95078.00
2023-04-27T02:50:38.554Z,95080.00
2023-04-27T02:51:38.604Z,95080.00
2023-04-27T02:52:38.635Z,95077.00
2023-04-27T02:53:38.661Z,95073.00
2023-04-27T02:54:38.688Z,95077.00
2023-04-27T02:55:38.701Z,95078.00
2023-04-27T02:56:38.738Z,95078.00
2023-04-27T02:57:38.784Z,95077.00
2023-04-27T02:58:38.809Z,95083.00
2023-04-27T02:59:38.825Z,95083.00
2023-04-27T03:00:38.851Z,95086.00
2023-04-27T03:01:39.146Z,95085.00
2023-04-27T03:02:39.153Z,95083.00
2023-04-27T03:03:39.217Z,95078.00
2023-04-27T03:04:39.073Z,95077.00
2023-04-27T03:05:39.030Z,95078.00
2023-04-27T03:06:39.078Z,95077.00
2023-04-27T03:07:39.072Z,95075.00
2023-04-27T03:08:39.125Z,95075.00
2023-04-27T03:09:39.158Z,95073.00
2023-04-27T03:10:39.198Z,95077.00
2023-04-27T03:11:39.211Z,95077.00
2023-04-27T03:12:39.248Z,95077.00
2023-04-27T03:13:39.256Z,95073.00
2023-04-27T03:14:39.290Z,95077.00
2023-04-27T03:15:39.328Z,95075.00
2023-04-27T03:16:39.390Z,95075.00
2023-04-27T03:17:39.383Z,95078.00
2023-04-27T03:18:39.406Z,95078.00
2023-04-27T03:19:39.407Z,95078.00
2023-04-27T03:20:39.463Z,95080.00
2023-04-27T03:21:39.449Z,95080.00
2023-04-27T03:22:39.498Z,95088.00
2023-04-27T03:23:39.476Z,95086.00
2023-04-27T03:24:39.486Z,95086.00
2023-04-27T03:25:39.551Z,95086.00
2023-04-27T03:26:39.522Z,95086.00
2023-04-27T03:27:39.569Z,95090.00
2023-04-27T03:28:39.598Z,95088.00
2023-04-27T03:29:39.606Z,95088.00
2023-04-27T03:30:39.605Z,95086.00
2023-04-27T03:31:39.645Z,95086.00
2023-04-27T03:32:39.684Z,95083.00
2023-04-27T03:33:39.659Z,95088.00
2023-04-27T03:34:39.663Z,95086.00
2023-04-27T03:35:39.685Z,95086.00
2023-04-27T03:36:39.662Z,95088.00
2023-04-27T03:37:39.716Z,95090.00
2023-04-27T03:38:39.695Z,95094.00
2023-04-27T03:39:39.726Z,95096.00
2023-04-27T03:40:39.704Z,95096.00
2023-04-27T03:41:39.725Z,95096.00
2023-04-27T03:42:39.726Z,95096.00
2023-04-27T03:43:39.741Z,95098.00
2023-04-27T03:44:39.832Z,95102.00
2023-04-27T03:45:39.771Z,95102.00
2023-04-27T03:46:39.737Z,95102.00
2023-04-27T03:47:39.874Z,95102.00
2023-04-27T03:48:39.782Z,95104.00
2023-04-27T03:49:39.826Z,95106.00
2023-04-27T03:50:39.794Z,95106.00
2023-04-27T03:51:39.809Z,95106.00
2023-04-27T03:52:39.833Z,95104.00
2023-04-27T03:53:39.858Z,95104.00
2023-04-27T03:54:39.871Z,95102.00
2023-04-27T03:55:39.871Z,95104.00
2023-04-27T03:56:39.886Z,95104.00
2023-04-27T03:57:39.882Z,95106.00
2023-04-27T03:58:39.927Z,95108.00
2023-04-27T03:59:39.911Z,95112.00
2023-04-27T04:00:40.012Z,95112.00
2023-04-27T04:01:40.014Z,95116.00
2023-04-27T04:02:40.073Z,95120.00
2023-04-27T04:03:40.082Z,95120.00
2023-04-27T04:04:40.214Z,95124.00
2023-04-27T04:05:39.986Z,95124.00
2023-04-27T04:06:40.006Z,95125.00
2023-04-27T04:07:40.003Z,95131.00
2023-04-27T04:08:39.988Z,95131.00
2023-04-27T04:09:40.024Z,95133.00
2023-04-27T04:10:40.012Z,95133.00
2023-04-27T04:11:40.042Z,95135.00
2023-04-27T04:12:40.017Z,95139.00
2023-04-27T04:13:39.994Z,95143.00
2023-04-27T04:14:40.066Z,95141.00
2023-04-27T04:15:40.123Z,95145.00
2023-04-27T04:16:40.068Z,95149.00
2023-04-27T04:17:40.053Z,95149.00
2023-04-27T04:18:40.017Z,95149.00
2023-04-27T04:19:40.036Z,95151.00
2023-04-27T04:20:40.048Z,95155.00
2023-04-27T04:21:40.013Z,95157.00
2023-04-27T04:22:40.023Z,95157.00
2023-04-27T04:23:40.062Z,95159.00
2023-04-27T04:24:40.083Z,95161.00
2023-04-27T04:25:40.038Z,95165.00
2023-04-27T04:26:40.035Z,95167.00
2023-04-27T04:27:40.080Z,95167.00
2023-04-27T04:28:40.047Z,95169.00
2023-04-27T04:29:40.018Z,95167.00
2023-04-27T04:30:40.035Z,95169.00
2023-04-27T04:31:40.073Z,95171.00
2023-04-27T04:32:40.082Z,95171.00
2023-04-27T04:33:40.067Z,95171.00
2023-04-27T04:34:40.034Z,95172.00
2023-04-27T04:35:40.093Z,95176.00
2023-04-27T04:36:40.032Z,95174.00
2023-04-27T04:37:40.058Z,95176.00
2023-04-27T04:38:40.042Z,95178.00
2023-04-27T04:39:40.003Z,95178.00
2023-04-27T04:40:40.058Z,95180.00
2023-04-27T04:41:40.045Z,95180.00
2023-04-27T04:42:40.012Z,95182.00
2023-04-27T04:43:40.021Z,95180.00
2023-04-27T04:44:40.000Z,95184.00
2023-04-27T04:45:40.021Z,95186.00
2023-04-27T04:46:40.086Z,95196.00
2023-04-27T04:47:40.127Z,95198.00
2023-04-27T04:48:40.025Z,95196.00
2023-04-27T04:49:40.010Z,95200.00
2023-04-27T04:50:40.019Z,95202.00
2023-04-27T04:51:39.991Z,95202.00
2023-04-27T04:52:40.010Z,95200.00
2023-04-27T04:53:40.018Z,95200.00
2023-04-27T04:54:40.016Z,95202.00
2023-04-27T04:55:39.990Z,95204.00
2023-04-27T04:56:39.984Z,95206.00
2023-04-27T04:57:40.019Z,95208.00
2023-04-27T04:58:40.028Z,95210.00
2023-04-27T04:59:40.010Z,95210.00
2023-04-27T05:00:46.995Z,95210.00
2023-04-27T05:01:47.049Z,95208.00
2023-04-27T05:02:40.120Z,95206.00
2023-04-27T05:03:40.186Z,95204.00
2023-04-27T05:04:40.072Z,95202.00
2023-04-27T05:05:39.955Z,95204.00
2023-04-27T05:06:39.957Z,95204.00
2023-04-27T05:07:39.936Z,95208.00
2023-04-27T05:08:39.919Z,95208.00
2023-04-27T05:09:39.969Z,95214.00
2023-04-27T05:10:39.926Z,95214.00
2023-04-27T05:11:39.925Z,95210.00
2023-04-27T05:12:39.927Z,95214.00
2023-04-27T05:13:39.898Z,95214.00
2023-04-27T05:14:39.902Z,95214.00
2023-04-27T05:15:39.896Z,95217.00
2023-04-27T05:16:40.002Z,95221.00
2023-04-27T05:17:39.912Z,95227.00
2023-04-27T05:18:39.879Z,95229.00
2023-04-27T05:19:39.870Z,95229.00
2023-04-27T05:20:39.856Z,95231.00
2023-04-27T05:21:39.846Z,95227.00
2023-04-27T05:22:39.838Z,95231.00
2023-04-27T05:23:39.821Z,95233.00
2023-04-27T05:24:39.876Z,95231.00
2023-04-27T05:25:39.832Z,95235.00
2023-04-27T05:26:39.818Z,95233.00
2023-04-27T05:27:39.794Z,95233.00
2023-04-27T05:28:39.803Z,95233.00
2023-04-27T05:29:39.802Z,95231.00
2023-04-27T05:30:39.805Z,95233.00
2023-04-27T05:31:39.826Z,95229.00
2023-04-27T05:32:40.270Z,95231.00
2023-04-27T05:33:39.820Z,95231.00
2023-04-27T05:34:39.802Z,95235.00
2023-04-27T05:35:39.748Z,95235.00
2023-04-27T05:36:39.759Z,95233.00
2023-04-27T05:37:39.754Z,95231.00
2023-04-27T05:38:39.740Z,95233.00
2023-04-27T05:39:39.732Z,95237.00
2023-04-27T05:40:39.710Z,95237.00
2023-04-27T05:41:39.700Z,95235.00
2023-04-27T05:42:39.741Z,95239.00
2023-04-27T05:43:39.751Z,95243.00
2023-04-27T05:44:39.724Z,95243.00
2023-04-27T05:45:39.732Z,95243.00
2023-04-27T05:46:46.698Z,95243.00
2023-04-27T05:47:39.875Z,95241.00
2023-04-27T05:48:39.667Z,95241.00
2023-04-27T05:49:39.663Z,95241.00
2023-04-27T05:50:39.654Z,95245.00
2023-04-27T05:51:39.628Z,95247.00
2023-04-27T05:52:39.640Z,95245.00
2023-04-27T05:53:39.631Z,95247.00
2023-04-27T05:54:39.657Z,95247.00
2023-04-27T05:55:39.630Z,95247.00
2023-04-27T05:56:39.660Z,95247.00
2023-04-27T05:57:40.360Z,95249.00
2023-04-27T05:58:39.607Z,95249.00
2023-04-27T05:59:39.590Z,95249.00
2023-04-27T06:00:39.597Z,95249.00
2023-04-27T06:01:39.571Z,95251.00
2023-04-27T06:02:39.680Z,95251.00
2023-04-27T06:03:39.778Z,95249.00
2023-04-27T06:04:39.630Z,95247.00
2023-04-27T06:05:39.600Z,95245.00
2023-04-27T06:06:39.528Z,95245.00
2023-04-27T06:07:39.559Z,95241.00
2023-04-27T06:08:39.585Z,95243.00
2023-04-27T06:09:39.529Z,95243.00
2023-04-27T06:10:39.497Z,95241.00
2023-04-27T06:11:39.498Z,95247.00
2023-04-27T06:12:39.492Z,95247.00
2023-04-27T06:13:39.752Z,95247.00
2023-04-27T06:14:39.497Z,95249.00
2023-04-27T06:15:39.577Z,95247.00
2023-04-27T06:16:39.471Z,95249.00
2023-04-27T06:17:39.511Z,95253.00
2023-04-27T06:18:39.440Z,95253.00
2023-04-27T06:19:39.464Z,95253.00
2023-04-27T06:20:39.442Z,95257.00
2023-04-27T06:21:39.433Z,95261.00
2023-04-27T06:22:39.463Z,95259.00
2023-04-27T06:23:39.418Z,95263.00
2023-04-27T06:24:39.490Z,95261.00
2023-04-27T06:25:39.433Z,95263.00
2023-04-27T06:26:39.399Z,95263.00
2023-04-27T06:27:39.407Z,95263.00
2023-04-27T06:28:39.379Z,95261.00
2023-04-27T06:29:39.387Z,95263.00
2023-04-27T06:30:39.755Z,95261.00
2023-04-27T06:31:39.459Z,95259.00
2023-04-27T06:32:39.404Z,95257.00
2023-04-27T06:33:39.802Z,95255.00
2023-04-27T06:34:39.418Z,95257.00
2023-04-27T06:35:39.473Z,95257.00
2023-04-27T06:36:39.525Z,95257.00
2023-04-27T06:37:39.536Z,95257.00
2023-04-27T06:38:39.792Z,95257.00
2023-04-27T06:39:39.663Z,95257.00
2023-04-27T06:40:39.756Z,95259.00
2023-04-27T06:41:39.786Z,95261.00
2023-04-27T06:42:39.929Z,95259.00
2023-04-27T06:43:40.350Z,95263.00
2023-04-27T06:44:39.869Z,95263.00
2023-04-27T06:45:39.882Z,95264.00
2023-04-27T06:46:39.936Z,95264.00
2023-04-27T06:47:39.910Z,95261.00
2023-04-27T06:48:39.885Z,95263.00
2023-04-27T06:49:39.895Z,95264.00
2023-04-27T06:50:39.910Z,95264.00
2023-04-27T06:51:39.960Z,95266.00
2023-04-27T06:52:39.947Z,95270.00
2023-04-27T06:53:40.058Z,95272.00
2023-04-27T06:54:40.008Z,95268.00
2023-04-27T06:55:43.028Z,95272.00
2023-04-27T06:56:40.076Z,95270.00
2023-04-27T06:57:40.021Z,95274.00
2023-04-27T06:58:40.023Z,95272.00
2023-04-27T06:59:40.000Z,95274.00
2023-04-27T07:00:39.989Z,95276.00
2023-04-27T07:01:40.087Z,95276.00
2023-04-27T07:02:40.118Z,95276.00
2023-04-27T07:03:40.292Z,95272.00
2023-04-27T07:04:39.992Z,95272.00
2023-04-27T07:05:39.981Z,95276.00
2023-04-27T07:06:39.951Z,95274.00
2023-04-27T07:07:39.914Z,95274.00
2023-04-27T07:08:39.936Z,95276.00
2023-04-27T07:09:39.933Z,95274.00
2023-04-27T07:10:39.902Z,95272.00
2023-04-27T07:11:39.908Z,95270.00
2023-04-27T07:12:39.887Z,95270.00
2023-04-27T07:13:39.905Z,95268.00
2023-04-27T07:14:39.909Z,95268.00
2023-04-27T07:15:39.980Z,95270.00
2023-04-27T07:16:40.011Z,95270.00
2023-04-27T07:17:39.910Z,95270.00
2023-04-27T07:18:40.997Z,95270.00
2023-04-27T07:19:40.716Z,95268.00
2023-04-27T07:20:39.855Z,95272.00
2023-04-27T07:21:39.867Z,95268.00
2023-04-27T07:22:39.818Z,95268.00
2023-04-27T07:23:39.821Z,95266.00
2023-04-27T07:24:39.824Z,95268.00
2023-04-27T07:25:39.838Z,95268.00
2023-04-27T07:26:39.857Z,95266.00
2023-04-27T07:27:39.804Z,95268.00
2023-04-27T07:28:39.825Z,95266.00
2023-04-27T07:29:39.791Z,95266.00
2023-04-27T07:30:39.819Z,95264.00
2023-04-27T07:31:39.823Z,95266.00
2023-04-27T07:32:39.843Z,95264.00
2023-04-27T07:33:39.800Z,95264.00
2023-04-27T07:34:51.728Z,95266.00
2023-04-27T07:35:40.717Z,95266.00
2023-04-27T07:36:39.735Z,95268.00
2023-04-27T07:37:39.718Z,95266.00
2023-04-27T07:38:39.698Z,95266.00
2023-04-27T07:39:39.814Z,95268.00
2023-04-27T07:40:39.700Z,95274.00
2023-04-27T07:41:39.690Z,95274.00
2023-04-27T07:42:39.694Z,95272.00
2023-04-27T07:43:39.672Z,95274.00
2023-04-27T07:44:39.675Z,95272.00
2023-04-27T07:45:39.690Z,95274.00
2023-04-27T07:46:39.704Z,95276.00
2023-04-27T07:47:39.779Z,95278.00
2023-04-27T07:48:39.840Z,95278.00
2023-04-27T07:49:39.848Z,95280.00
2023-04-27T07:50:39.901Z,95282.00
2023-04-27T07:51:39.941Z,95282.00
2023-04-27T07:52:39.958Z,95282.00
2023-04-27T07:53:39.997Z,95286.00
2023-04-27T07:54:39.983Z,95286.00
2023-04-27T07:55:40.037Z,95286.00
2023-04-27T07:56:40.015Z,95290.00
2023-04-27T07:57:40.056Z,95290.00
2023-04-27T07:58:40.073Z,95292.00
2023-04-27T07:59:40.096Z,95294.00
2023-04-27T08:00:40.123Z,95292.00
2023-04-27T08:01:40.080Z,95296.00
2023-04-27T08:02:40.278Z,95296.00
2023-04-27T08:03:40.299Z,95296.00
2023-04-27T08:04:40.442Z,95298.00
2023-04-27T08:05:40.326Z,95298.00
2023-04-27T08:06:40.444Z,95302.00
2023-04-27T08:07:44.633Z,95300.00
2023-04-27T08:08:41.043Z,95300.00
2023-04-27T08:09:40.903Z,95302.00
2023-04-27T08:10:40.050Z,95298.00
2023-04-27T08:11:40.082Z,95300.00
2023-04-27T08:12:40.096Z,95302.00
2023-04-27T08:13:40.030Z,95300.00
2023-04-27T08:14:40.010Z,95302.00
2023-04-27T08:15:40.015Z,95302.00
2023-04-27T08:16:40.027Z,95300.00
2023-04-27T08:17:40.004Z,95300.00
2023-04-27T08:18:39.993Z,95298.00
2023-04-27T08:19:40.015Z,95302.00
2023-04-27T08:20:39.983Z,95298.00
2023-04-27T08:21:39.944Z,95298.00
2023-04-27T08:22:39.968Z,95298.00
2023-04-27T08:23:39.997Z,95300.00
2023-04-27T08:24:39.933Z,95298.00
2023-04-27T08:25:39.943Z,95298.00
2023-04-27T08:26:39.937Z,95298.00
2023-04-27T08:27:39.919Z,95300.00
2023-04-27T08:28:39.915Z,95300.00
2023-04-27T08:29:39.880Z,95300.00
2023-04-27T08:30:39.910Z,95298.00
2023-04-27T08:31:39.991Z,95300.00
2023-04-27T08:32:40.046Z,95300.00
2023-04-27T08:33:39.927Z,95298.00
2023-04-27T08:34:40.306Z,95298.00
2023-04-27T08:35:40.029Z,95298.00
2023-04-27T08:36:40.031Z,95296.00
2023-04-27T08:37:40.041Z,95292.00
2023-04-27T08:38:40.040Z,95292.00
2023-04-27T08:39:40.285Z,95292.00
2023-04-27T08:40:40.086Z,95292.00
2023-04-27T08:41:40.091Z,95292.00
2023-04-27T08:42:40.124Z,95294.00
2023-04-27T08:43:40.160Z,95292.00
2023-04-27T08:44:40.170Z,95294.00
2023-04-27T08:45:40.180Z,95290.00
2023-04-27T08:46:40.223Z,95288.00
2023-04-27T08:47:43.921Z,95292.00
2023-04-27T08:48:40.246Z,95288.00
2023-04-27T08:49:40.249Z,95288.00
2023-04-27T08:50:40.217Z,95286.00
2023-04-27T08:51:40.193Z,95284.00
2023-04-27T08:52:40.229Z,95280.00
2023-04-27T08:53:40.197Z,95284.00
2023-04-27T08:54:40.182Z,95282.00
2023-04-27T08:55:40.196Z,95284.00
2023-04-27T08:56:40.225Z,95286.00
2023-04-27T08:57:40.160Z,95284.00
2023-04-27T08:58:40.131Z,95286.00
2023-04-27T08:59:40.176Z,95288.00
2023-04-27T09:00:40.141Z,95288.00
2023-04-27T09:01:40.204Z,95286.00
2023-04-27T09:02:40.289Z,95284.00
2023-04-27T09:03:40.226Z,95282.00
2023-04-27T09:04:40.294Z,95282.00
2023-04-27T09:05:46.590Z,95282.00
2023-04-27T09:06:41.124Z,95282.00
2023-04-27T09:07:40.099Z,95282.00
2023-04-27T09:08:40.134Z,95286.00
2023-04-27T09:09:40.064Z,95288.00
2023-04-27T09:10:40.310Z,95286.00
2023-04-27T09:11:40.098Z,95286.00
2023-04-27T09:12:40.083Z,95284.00
2023-04-27T09:13:40.081Z,95282.00
2023-04-27T09:14:40.064Z,95280.00
2023-04-27T09:15:40.090Z,95280.00
2023-04-27T09:16:40.120Z,95276.00
2023-04-27T09:17:40.053Z,95276.00
2023-04-27T09:18:39.993Z,95274.00
2023-04-27T09:19:40.056Z,95272.00
2023-04-27T09:20:40.115Z,95274.00
2023-04-27T09:21:40.159Z,95272.00
2023-04-27T09:22:40.201Z,95272.00
2023-04-27T09:23:40.227Z,95272.00
2023-04-27T09:24:40.305Z,95270.00
2023-04-27T09:25:40.842Z,95266.00
2023-04-27T09:26:40.363Z,95263.00
2023-04-27T09:27:40.411Z,95263.00
2023-04-27T09:28:40.413Z,95261.00
2023-04-27T09:29:40.440Z,95261.00
2023-04-27T09:30:40.484Z,95264.00
2023-04-27T09:31:40.542Z,95268.00
2023-04-27T09:32:40.518Z,95270.00
2023-04-27T09:33:40.502Z,95266.00
2023-04-27T09:34:40.511Z,95266.00
2023-04-27T09:35:40.830Z,95264.00
2023-04-27T09:36:40.539Z,95259.00
2023-04-27T09:37:40.547Z,95259.00
2023-04-27T09:38:40.533Z,95255.00
2023-04-27T09:39:40.553Z,95257.00
2023-04-27T09:40:40.552Z,95257.00
2023-04-27T09:41:40.609Z,95253.00
2023-04-27T09:42:40.614Z,95253.00
2023-04-27T09:43:40.581Z,95253.00
2023-04-27T09:44:40.957Z,95249.00
2023-04-27T09:45:40.636Z,95249.00
2023-04-27T09:46:40.604Z,95245.00
2023-04-27T09:47:40.648Z,95245.00
2023-04-27T09:48:40.624Z,95249.00
2023-04-27T09:49:40.639Z,95247.00
2023-04-27T09:50:40.831Z,95245.00
2023-04-27T09:51:40.603Z,95241.00
2023-04-27T09:52:40.600Z,95241.00
2023-04-27T09:53:40.603Z,95239.00
2023-04-27T09:54:40.613Z,95237.00
2023-04-27T09:55:40.608Z,95233.00
2023-04-27T09:56:40.587Z,95229.00
2023-04-27T09:57:40.615Z,95229.00
2023-04-27T09:58:40.590Z,95225.00
2023-04-27T09:59:40.601Z,95223.00
2023-04-27T10:00:40.839Z,95221.00
2023-04-27T10:01:40.629Z,95221.00
2023-04-27T10:02:52.171Z,95223.00
2023-04-27T10:03:41.617Z,95221.00
2023-04-27T10:04:40.772Z,95221.00
2023-04-27T10:05:41.545Z,95216.00
2023-04-27T10:06:40.556Z,95216.00
2023-04-27T10:07:40.532Z,95216.00
2023-04-27T10:08:40.553Z,95217.00
2023-04-27T10:09:40.546Z,95210.00
2023-04-27T10:10:40.527Z,95212.00
2023-04-27T10:11:40.528Z,95206.00
2023-04-27T10:12:40.493Z,95208.00
2023-04-27T10:13:40.514Z,95208.00
2023-04-27T10:14:40.483Z,95210.00
2023-04-27T10:15:40.495Z,95208.00
2023-04-27T10:16:40.548Z,95202.00
2023-04-27T10:17:40.487Z,95200.00
2023-04-27T10:18:40.464Z,95196.00
2023-04-27T10:19:40.517Z,95194.00
2023-04-27T10:20:40.457Z,95194.00
2023-04-27T10:21:40.433Z,95182.00
2023-04-27T10:22:40.426Z,95186.00
2023-04-27T10:23:40.445Z,95182.00
2023-04-27T10:24:40.410Z,95182.00
2023-04-27T10:25:40.535Z,95184.00
2023-04-27T10:26:40.380Z,95180.00
2023-04-27T10:27:40.394Z,95178.00
2023-04-27T10:28:40.379Z,95180.00
2023-04-27T10:29:40.399Z,95180.00
2023-04-27T10:30:40.445Z,95178.00
2023-04-27T10:31:40.375Z,95178.00
2023-04-27T10:32:40.359Z,95178.00
2023-04-27T10:33:40.338Z,95180.00
2023-04-27T10:34:40.349Z,95182.00
2023-04-27T10:35:40.885Z,95178.00
2023-04-27T10:36:40.459Z,95171.00
2023-04-27T10:37:40.544Z,95171.00
2023-04-27T10:38:40.583Z,95169.00
2023-04-27T10:39:48.010Z,95169.00
2023-04-27T10:40:41.891Z,95167.00
2023-04-27T10:41:40.624Z,95167.00
2023-04-27T10:42:40.650Z,95165.00
2023-04-27T10:43:40.578Z,95167.00
2023-04-27T10:44:40.608Z,95163.00
2023-04-27T10:45:40.558Z,95161.00
2023-04-27T10:46:40.889Z,95159.00
2023-04-27T10:47:40.572Z,95155.00
2023-04-27T10:48:40.606Z,95155.00
2023-04-27T10:49:40.555Z,95151.00
2023-04-27T10:50:40.560Z,95155.00
2023-04-27T10:51:40.548Z,95157.00
2023-04-27T10:52:40.539Z,95153.00
2023-04-27T10:53:40.566Z,95155.00
2023-04-27T10:54:40.516Z,95153.00
2023-04-27T10:55:40.581Z,95151.00
2023-04-27T10:56:40.886Z,95147.00
2023-04-27T10:57:40.624Z,95139.00
2023-04-27T10:58:48.690Z,95137.00
2023-04-27T10:59:41.667Z,95141.00
2023-04-27T11:00:40.627Z,95139.00
2023-04-27T11:01:40.643Z,95141.00
2023-04-27T11:02:40.727Z,95139.00
2023-04-27T11:03:40.762Z,95137.00
2023-04-27T11:04:40.643Z,95135.00
2023-04-27T11:05:40.631Z,95135.00
2023-04-27T11:06:40.597Z,95129.00
2023-04-27T11:07:40.617Z,95133.00
2023-04-27T11:08:40.602Z,95131.00
2023-04-27T11:09:40.597Z,95131.00
2023-04-27T11:10:40.577Z,95131.00
2023-04-27T11:11:40.579Z,95133.00
2023-04-27T11:12:40.625Z,95133.00
2023-04-27T11:13:40.762Z,95133.00
2023-04-27T11:14:40.733Z,95137.00
2023-04-27T11:15:40.807Z,95129.00
2023-04-27T11:16:40.814Z,95127.00
2023-04-27T11:17:40.886Z,95124.00
2023-04-27T11:18:40.916Z,95127.00
2023-04-27T11:19:40.898Z,95129.00
2023-04-27T11:20:40.981Z,95129.00
2023-04-27T11:21:41.406Z,95125.00
2023-04-27T11:22:41.069Z,95125.00
2023-04-27T11:23:41.105Z,95127.00
2023-04-27T11:24:41.115Z,95129.00
2023-04-27T11:25:41.178Z,95129.00
2023-04-27T11:26:41.246Z,95127.00
2023-04-27T11:27:41.256Z,95125.00
2023-04-27T11:28:41.298Z,95125.00
2023-04-27T11:29:41.874Z,95127.00
2023-04-27T11:30:41.414Z,95124.00
2023-04-27T11:31:41.957Z,95125.00
2023-04-27T11:32:41.528Z,95133.00
2023-04-27T11:33:41.517Z,95131.00
2023-04-27T11:34:41.541Z,95129.00
2023-04-27T11:35:41.586Z,95131.00
2023-04-27T11:36:41.880Z,95129.00
2023-04-27T11:37:41.668Z,95131.00
2023-04-27T11:38:41.679Z,95129.00
2023-04-27T11:39:41.720Z,95125.00
2023-04-27T11:40:41.652Z,95124.00
2023-04-27T11:41:41.914Z,95122.00
2023-04-27T11:42:41.716Z,95122.00
2023-04-27T11:43:41.731Z,95118.00
2023-04-27T11:44:41.722Z,95120.00